Time;durP1;ratioP1;P1;durP2;ratioP2;P2;SDS_P1;SDS_P2;PMS_P1;PMS_P2;Temp;Humidity;BMP_temperature;BMP_pressure;BME280_temperature;BME280_humidity;BME280_pressure;Samples;Min_cycle;Max_cycle;Signal;HPM_P1;HPM_P2
2021/08/26 00:00:24;;;;;;;3.92;2.35;;;;;;;;;;5111531;28;20126;-59
2021/08/26 00:05:50;;;;;;;2.97;2.17;;;;;;;;;;5112015;28;20156;-58
2021/08/26 00:08:16;;;;;;;6.72;2.83;;;;;;;;;;5111661;28;20027;-59
2021/08/26 00:10:41;;;;;;;4.50;1.75;;;;;;;;;;5111712;28;20428;-58
2021/08/26 00:13:07;;;;;;;3.83;2.22;;;;;;;;;;5112256;28;20033;-58
2021/08/26 00:15:35;;;;;;;5.07;3.03;;;;;;;;;;5111801;28;20122;-56
2021/08/26 00:18:00;;;;;;;4.90;2.75;;;;;;;;;;5111804;28;20015;-56
2021/08/26 00:20:26;;;;;;;3.25;1.77;;;;;;;;;;5111675;28;20028;-57
2021/08/26 00:22:51;;;;;;;6.43;3.00;;;;;;;;;;5111745;28;20024;-55
2021/08/26 00:25:16;;;;;;;5.30;2.25;;;;;;;;;;5112054;28;20111;-57
2021/08/26 00:27:42;;;;;;;4.68;2.60;;;;;;;;;;5111665;28;20047;-57
2021/08/26 00:30:07;;;;;;;4.90;3.33;;;;;;;;;;5111018;28;20028;-58
2021/08/26 00:32:32;;;;;;;5.82;4.28;;;;;;;;;;5112053;28;20030;-58
2021/08/26 00:34:57;;;;;;;7.68;4.30;;;;;;;;;;5112071;28;20020;-57
2021/08/26 00:37:23;;;;;;;7.00;4.65;;;;;;;;;;5111407;28;20023;-56
2021/08/26 00:39:48;;;;;;;7.22;4.93;;;;;;;;;;5110719;28;20492;-57
2021/08/26 00:42:14;;;;;;;6.95;5.05;;;;;;;;;;5112052;28;20032;-57
2021/08/26 00:44:39;;;;;;;8.00;5.05;;;;;;;;;;5115527;28;20042;-57
2021/08/26 00:47:04;;;;;;;6.28;5.65;;;;;;;;;;5115712;28;20020;-57
2021/08/26 00:49:30;;;;;;;7.85;5.70;;;;;;;;;;5115240;28;20027;-58
2021/08/26 00:51:55;;;;;;;8.70;6.40;;;;;;;;;;5115656;28;20056;-58
2021/08/26 00:54:21;;;;;;;9.65;7.47;;;;;;;;;;5115882;28;20094;-56
2021/08/26 00:56:46;;;;;;;6.90;5.65;;;;;;;;;;5115696;28;20387;-58
2021/08/26 00:59:11;;;;;;;7.32;6.20;;;;;;;;;;5114056;28;20060;-57
2021/08/26 01:01:47;;;;;;;11.00;7.68;;;;;;;;;;5115785;28;20016;-56
2021/08/26 01:04:12;;;;;;;8.52;7.63;;;;;;;;;;5115615;28;20015;-57
2021/08/26 01:06:49;;;;;;;10.27;9.15;;;;;;;;;;5115410;28;20022;-57
2021/08/26 01:09:19;;;;;;;9.38;8.38;;;;;;;;;;5114548;28;20012;-57
2021/08/26 01:11:46;;;;;;;7.45;5.10;;;;;;;;;;5115060;28;20355;-57
2021/08/26 01:14:11;;;;;;;8.20;7.38;;;;;;;;;;5113805;28;20047;-57
2021/08/26 01:16:39;;;;;;;8.05;7.15;;;;;;;;;;5115453;28;20106;-57
2021/08/26 01:19:05;;;;;;;7.22;6.53;;;;;;;;;;5114212;28;20416;-58
2021/08/26 01:21:31;;;;;;;8.45;7.65;;;;;;;;;;5114848;28;20023;-57
2021/08/26 01:24:01;;;;;;;7.65;6.88;;;;;;;;;;5115528;28;20095;-58
2021/08/26 01:26:32;;;;;;;8.55;6.53;;;;;;;;;;5115110;28;20477;-57
2021/08/26 01:29:01;;;;;;;5.70;5.20;;;;;;;;;;5113661;28;20174;-56
2021/08/26 01:31:26;;;;;;;6.35;5.75;;;;;;;;;;5115153;28;20069;-57
2021/08/26 01:33:55;;;;;;;5.10;4.18;;;;;;;;;;5114871;28;20424;-57
2021/08/26 01:36:22;;;;;;;4.38;3.97;;;;;;;;;;5114826;28;20034;-57
2021/08/26 01:38:47;;;;;;;3.92;3.55;;;;;;;;;;5114278;28;20053;-57
2021/08/26 01:41:13;;;;;;;5.05;4.55;;;;;;;;;;5114084;28;20035;-56
2021/08/26 01:43:38;;;;;;;2.92;2.63;;;;;;;;;;5114264;28;20021;-58
2021/08/26 01:46:03;;;;;;;3.20;2.90;;;;;;;;;;5114739;28;20020;-56
2021/08/26 01:48:29;;;;;;;3.13;2.90;;;;;;;;;;5114193;28;20019;-56
2021/08/26 01:50:54;;;;;;;2.60;2.40;;;;;;;;;;5114021;28;20100;-56
2021/08/26 01:53:19;;;;;;;3.15;2.33;;;;;;;;;;5114631;28;20039;-56
2021/08/26 01:55:45;;;;;;;0.93;0.80;;;;;;;;;;5114153;28;20373;-56
2021/08/26 01:58:10;;;;;;;1.58;1.48;;;;;;;;;;5114066;28;20458;-56
2021/08/26 02:00:36;;;;;;;1.48;1.20;;;;;;;;;;5113870;28;20089;-58
2021/08/26 02:03:01;;;;;;;0.60;0.57;;;;;;;;;;5114577;28;20030;-53
2021/08/26 02:05:26;;;;;;;1.63;0.80;;;;;;;;;;5114171;28;20026;-57
2021/08/26 02:07:52;;;;;;;0.85;0.85;;;;;;;;;;5113909;28;20019;-55
2021/08/26 02:10:17;;;;;;;1.10;1.00;;;;;;;;;;5113053;28;20063;-55
2021/08/26 02:12:42;;;;;;;1.20;1.10;;;;;;;;;;5112788;28;20508;-55
2021/08/26 02:15:08;;;;;;;0.20;0.20;;;;;;;;;;5113773;28;20493;-57
2021/08/26 02:17:33;;;;;;;1.10;1.00;;;;;;;;;;5113665;28;20089;-56
2021/08/26 02:19:59;;;;;;;0.93;0.85;;;;;;;;;;5113711;28;20028;-56
2021/08/26 02:22:24;;;;;;;1.20;1.10;;;;;;;;;;5114124;28;20110;-56
2021/08/26 02:24:49;;;;;;;1.30;1.20;;;;;;;;;;5114173;28;20084;-55
2021/08/26 02:27:14;;;;;;;0.65;0.57;;;;;;;;;;5113176;28;20028;-58
2021/08/26 02:29:40;;;;;;;2.03;1.92;;;;;;;;;;5113188;28;20067;-56
2021/08/26 02:32:05;;;;;;;1.95;1.10;;;;;;;;;;5106839;28;20068;-56
2021/08/26 02:34:30;;;;;;;2.20;2.03;;;;;;;;;;5113775;28;20012;-57
2021/08/26 02:36:55;;;;;;;1.67;1.58;;;;;;;;;;5113199;28;20031;-58
2021/08/26 02:39:21;;;;;;;2.78;2.58;;;;;;;;;;5112963;28;20027;-59
2021/08/26 02:41:46;;;;;;;3.22;3.03;;;;;;;;;;5113301;28;20479;-57
2021/08/26 02:44:11;;;;;;;3.50;3.20;;;;;;;;;;5113329;28;20096;-57
2021/08/26 02:46:36;;;;;;;4.07;2.90;;;;;;;;;;5113388;28;20019;-57
2021/08/26 02:49:01;;;;;;;3.83;3.63;;;;;;;;;;5113410;28;20061;-58
2021/08/26 02:51:27;;;;;;;3.75;3.45;;;;;;;;;;5113005;28;20466;-57
2021/08/26 02:53:52;;;;;;;4.65;4.35;;;;;;;;;;5113443;28;20228;-56
2021/08/26 02:56:17;;;;;;;1.38;0.98;;;;;;;;;;5113178;28;20065;-58
2021/08/26 02:58:42;;;;;;;3.15;2.80;;;;;;;;;;5112842;28;20029;-56
2021/08/26 03:01:07;;;;;;;3.88;3.58;;;;;;;;;;5106125;28;20042;-58
2021/08/26 03:03:33;;;;;;;3.63;3.38;;;;;;;;;;5094728;28;20039;-58
2021/08/26 03:05:58;;;;;;;4.70;4.40;;;;;;;;;;5112747;28;20059;-57
2021/08/26 03:08:23;;;;;;;2.22;1.48;;;;;;;;;;5112568;28;20492;-55
2021/08/26 03:10:48;;;;;;;4.80;4.40;;;;;;;;;;5112713;28;20023;-58
2021/08/26 03:13:13;;;;;;;4.47;4.07;;;;;;;;;;5112515;28;20020;-57
2021/08/26 03:15:39;;;;;;;3.53;3.33;;;;;;;;;;5112074;28;20466;-58
2021/08/26 03:18:04;;;;;;;3.10;2.90;;;;;;;;;;5112691;28;20015;-57
2021/08/26 03:20:29;;;;;;;4.97;4.57;;;;;;;;;;5112540;28;20046;-58
2021/08/26 03:22:54;;;;;;;4.55;4.25;;;;;;;;;;5112731;28;20023;-55
2021/08/26 03:25:20;;;;;;;4.50;4.10;;;;;;;;;;5111905;28;20028;-57
2021/08/26 03:27:45;;;;;;;4.13;3.83;;;;;;;;;;5092097;28;20043;-57
2021/08/26 03:30:11;;;;;;;5.63;5.13;;;;;;;;;;5097534;28;20016;-57
2021/08/26 03:32:36;;;;;;;4.63;4.32;;;;;;;;;;5112637;28;20019;-56
2021/08/26 03:35:01;;;;;;;5.35;4.88;;;;;;;;;;5112251;28;20527;-57
2021/08/26 03:37:26;;;;;;;5.47;4.97;;;;;;;;;;5112240;28;20466;-56
2021/08/26 03:39:51;;;;;;;5.68;5.13;;;;;;;;;;5112102;28;20030;-56
2021/08/26 03:42:17;;;;;;;4.22;3.92;;;;;;;;;;5112318;28;20016;-57
2021/08/26 03:44:42;;;;;;;3.15;2.88;;;;;;;;;;5112313;28;20024;-57
2021/08/26 03:47:08;;;;;;;4.82;4.43;;;;;;;;;;5106451;28;20020;-56
2021/08/26 03:49:33;;;;;;;1.23;1.00;;;;;;;;;;5111752;28;20038;-57
2021/08/26 03:51:58;;;;;;;2.03;1.30;;;;;;;;;;5112244;28;20423;-57
2021/08/26 03:54:23;;;;;;;1.38;0.90;;;;;;;;;;5112226;28;20008;-57
2021/08/26 03:56:49;;;;;;;2.17;1.20;;;;;;;;;;5112268;28;20510;-57
2021/08/26 03:59:14;;;;;;;2.80;1.27;;;;;;;;;;5110944;28;20488;-57
2021/08/26 04:01:39;;;;;;;1.35;1.10;;;;;;;;;;5111216;28;20019;-53
2021/08/26 04:04:04;;;;;;;2.20;1.35;;;;;;;;;;5111971;28;20055;-57
2021/08/26 04:06:30;;;;;;;2.33;0.90;;;;;;;;;;5111811;28;20388;-56
2021/08/26 04:08:55;;;;;;;3.13;1.90;;;;;;;;;;5108083;28;20028;-56
2021/08/26 04:11:20;;;;;;;2.83;0.73;;;;;;;;;;5097951;28;20465;-56
2021/08/26 04:13:45;;;;;;;0.50;0.50;;;;;;;;;;5111617;28;20024;-54
2021/08/26 04:16:10;;;;;;;5.60;2.47;;;;;;;;;;5093799;28;20112;-55
2021/08/26 04:18:36;;;;;;;2.05;1.13;;;;;;;;;;5094107;28;20098;-56
2021/08/26 04:21:01;;;;;;;2.97;1.63;;;;;;;;;;5098778;28;20058;-56
2021/08/26 04:23:26;;;;;;;3.03;1.77;;;;;;;;;;5115768;28;20154;-54
2021/08/26 04:25:51;;;;;;;5.13;1.95;;;;;;;;;;5115963;28;20049;-56
2021/08/26 04:28:16;;;;;;;3.35;1.60;;;;;;;;;;5115641;28;20102;-57
2021/08/26 04:30:42;;;;;;;5.60;2.25;;;;;;;;;;5115839;28;20020;-55
2021/08/26 04:33:07;;;;;;;3.50;1.92;;;;;;;;;;5116337;27;20537;-54
2021/08/26 04:35:32;;;;;;;4.90;2.70;;;;;;;;;;5115991;28;20114;-56
2021/08/26 04:37:58;;;;;;;2.85;1.35;;;;;;;;;;5115910;28;20350;-54
2021/08/26 04:40:23;;;;;;;4.75;2.13;;;;;;;;;;5115865;28;20035;-55
2021/08/26 04:42:48;;;;;;;6.20;2.30;;;;;;;;;;5111019;28;20024;-56
2021/08/26 04:45:13;;;;;;;4.57;1.90;;;;;;;;;;5102054;28;20019;-55
2021/08/26 04:47:39;;;;;;;6.25;2.65;;;;;;;;;;5115838;28;20359;-55
2021/08/26 04:50:04;;;;;;;3.20;2.05;;;;;;;;;;5115727;28;20103;-55
2021/08/26 04:52:29;;;;;;;3.97;1.52;;;;;;;;;;5114917;28;20351;-54
2021/08/26 04:54:55;;;;;;;4.78;2.60;;;;;;;;;;5115588;28;20422;-57
2021/08/26 04:57:20;;;;;;;6.40;3.97;;;;;;;;;;5115107;28;20020;-56
2021/08/26 04:59:45;;;;;;;6.00;3.40;;;;;;;;;;5115035;28;20537;-54
2021/08/26 05:02:11;;;;;;;6.82;3.03;;;;;;;;;;5104692;28;20034;-55
2021/08/26 05:04:36;;;;;;;6.65;3.10;;;;;;;;;;5094937;28;20054;-56
2021/08/26 05:07:01;;;;;;;7.95;3.50;;;;;;;;;;5113132;28;20125;-53
2021/08/26 05:09:26;;;;;;;6.22;3.33;;;;;;;;;;5114652;28;20015;-57
2021/08/26 05:11:54;;;;;;;4.47;2.53;;;;;;;;;;5115130;28;20028;-55
2021/08/26 05:14:19;;;;;;;5.20;3.65;;;;;;;;;;5114711;28;20024;-56
2021/08/26 05:16:44;;;;;;;6.28;4.45;;;;;;;;;;5114107;28;20088;-57
2021/08/26 05:19:09;;;;;;;7.55;4.60;;;;;;;;;;5095354;28;20118;-54
2021/08/26 05:21:34;;;;;;;6.47;4.57;;;;;;;;;;5094854;28;20032;-57
2021/08/26 05:24:00;;;;;;;5.13;4.63;;;;;;;;;;5094702;28;20104;-58
2021/08/26 05:26:25;;;;;;;7.85;5.30;;;;;;;;;;5106838;28;20058;-57
2021/08/26 05:28:51;;;;;;;8.32;5.13;;;;;;;;;;5110970;28;20086;-58
2021/08/26 05:31:17;;;;;;;5.38;4.78;;;;;;;;;;5113226;28;20050;-58
2021/08/26 05:33:42;;;;;;;8.40;5.05;;;;;;;;;;5113820;28;20015;-57
2021/08/26 05:36:07;;;;;;;6.32;3.30;;;;;;;;;;5113214;28;20031;-57
2021/08/26 05:38:32;;;;;;;5.78;5.25;;;;;;;;;;5113277;28;20498;-57
2021/08/26 05:40:58;;;;;;;7.30;5.85;;;;;;;;;;5113467;28;20084;-58
2021/08/26 05:43:24;;;;;;;7.60;5.70;;;;;;;;;;5113531;28;20114;-57
2021/08/26 05:45:49;;;;;;;7.97;5.50;;;;;;;;;;5112390;28;20107;-57
2021/08/26 05:48:14;;;;;;;8.68;5.43;;;;;;;;;;5113253;28;20115;-58
2021/08/26 05:50:40;;;;;;;7.93;5.70;;;;;;;;;;5112967;28;20019;-58
2021/08/26 05:53:05;;;;;;;5.60;3.00;;;;;;;;;;5113174;28;20382;-58
2021/08/26 05:55:30;;;;;;;10.07;5.93;;;;;;;;;;5113226;28;20051;-58
2021/08/26 05:57:55;;;;;;;8.38;4.25;;;;;;;;;;5108917;28;20113;-58
2021/08/26 06:00:21;;;;;;;5.93;4.45;;;;;;;;;;5097844;28;20070;-57
2021/08/26 06:02:46;;;;;;;9.48;4.05;;;;;;;;;;5112353;28;20474;-59
2021/08/26 06:05:11;;;;;;;1.98;1.38;;;;;;;;;;5118379;28;20035;-59
2021/08/26 06:07:38;;;;;;;7.60;5.55;;;;;;;;;;5112351;28;20019;-58
2021/08/26 06:10:04;;;;;;;10.73;6.00;;;;;;;;;;5111523;28;20023;-59
2021/08/26 06:12:29;;;;;;;11.63;5.50;;;;;;;;;;5112701;28;20466;-58
2021/08/26 06:14:55;;;;;;;10.48;6.40;;;;;;;;;;5112420;28;20018;-59
2021/08/26 06:17:20;;;;;;;11.25;6.72;;;;;;;;;;5112108;28;20088;-59
2021/08/26 06:19:45;;;;;;;11.50;5.82;;;;;;;;;;5112413;28;20035;-59
2021/08/26 06:22:10;;;;;;;9.15;6.80;;;;;;;;;;5111448;28;20020;-57
2021/08/26 06:24:35;;;;;;;10.32;5.93;;;;;;;;;;5094488;28;20066;-59
2021/08/26 06:27:02;;;;;;;9.27;6.22;;;;;;;;;;5112515;28;20024;-58
2021/08/26 06:29:27;;;;;;;9.25;7.43;;;;;;;;;;5073963;28;1092985;-58
2021/08/26 06:31:52;;;;;;;10.18;5.40;;;;;;;;;;5113267;28;20400;-58
2021/08/26 06:34:18;;;;;;;11.35;8.05;;;;;;;;;;5113621;28;20374;-58
2021/08/26 06:36:43;;;;;;;11.63;7.22;;;;;;;;;;5113516;28;20500;-59
2021/08/26 06:39:08;;;;;;;10.23;8.20;;;;;;;;;;5112827;28;20042;-58
2021/08/26 06:41:34;;;;;;;13.77;8.75;;;;;;;;;;5112230;28;20019;-59
2021/08/26 06:43:59;;;;;;;11.63;7.53;;;;;;;;;;5113405;28;20048;-59
2021/08/26 06:46:24;;;;;;;12.38;8.02;;;;;;;;;;5113421;28;20023;-59
2021/08/26 06:48:51;;;;;;;11.25;6.32;;;;;;;;;;5112824;28;20366;-58
2021/08/26 06:51:16;;;;;;;13.60;8.32;;;;;;;;;;5113448;28;20019;-59
2021/08/26 06:53:41;;;;;;;9.80;4.53;;;;;;;;;;5113440;28;20020;-59
2021/08/26 06:56:06;;;;;;;11.85;8.45;;;;;;;;;;5113174;28;20043;-58
2021/08/26 06:58:32;;;;;;;12.55;7.65;;;;;;;;;;5100042;28;20061;-58
2021/08/26 07:00:57;;;;;;;10.45;7.32;;;;;;;;;;5111862;28;20016;-58
2021/08/26 07:03:22;;;;;;;13.48;8.35;;;;;;;;;;5112706;28;20119;-57
2021/08/26 07:05:47;;;;;;;11.07;8.15;;;;;;;;;;5111518;28;20027;-58
2021/08/26 07:08:12;;;;;;;12.57;7.93;;;;;;;;;;5112789;28;20372;-59
2021/08/26 07:10:38;;;;;;;12.85;8.90;;;;;;;;;;5113410;28;20107;-57
2021/08/26 07:13:03;;;;;;;10.02;7.22;;;;;;;;;;5110696;28;20019;-58
2021/08/26 07:15:29;;;;;;;13.23;7.57;;;;;;;;;;5120915;27;20011;-58
2021/08/26 07:17:54;;;;;;;14.10;9.15;;;;;;;;;;5127285;27;20434;-59
2021/08/26 07:20:19;;;;;;;13.38;7.85;;;;;;;;;;5111042;28;20485;-59
2021/08/26 07:22:45;;;;;;;14.65;9.60;;;;;;;;;;5111518;28;20028;-59
2021/08/26 07:25:10;;;;;;;15.07;6.90;;;;;;;;;;5111106;28;20040;-59
2021/08/26 07:27:36;;;;;;;10.77;6.28;;;;;;;;;;5116590;27;20048;-57
2021/08/26 07:30:01;;;;;;;12.38;6.55;;;;;;;;;;5112895;28;20126;-58
2021/08/26 07:32:26;;;;;;;14.15;8.52;;;;;;;;;;5112444;28;20051;-58
2021/08/26 07:34:51;;;;;;;14.68;5.80;;;;;;;;;;5112215;28;20043;-58
2021/08/26 07:37:17;;;;;;;9.55;5.90;;;;;;;;;;5112667;28;20095;-59
2021/08/26 07:39:44;;;;;;;10.32;7.50;;;;;;;;;;5109997;28;20126;-57
2021/08/26 07:42:09;;;;;;;12.90;6.68;;;;;;;;;;5103000;28;20019;-58
2021/08/26 07:44:34;;;;;;;5.78;3.47;;;;;;;;;;5093266;28;20377;-57
2021/08/26 07:46:59;;;;;;;13.57;6.28;;;;;;;;;;5111149;28;20123;-58
2021/08/26 07:49:25;;;;;;;10.68;5.70;;;;;;;;;;5112203;28;20024;-58
2021/08/26 07:51:50;;;;;;;6.45;4.15;;;;;;;;;;5112438;28;20031;-58
2021/08/26 07:54:15;;;;;;;8.32;4.38;;;;;;;;;;5111891;28;20020;-58
2021/08/26 07:56:40;;;;;;;8.70;3.85;;;;;;;;;;5112204;28;20023;-60
2021/08/26 07:59:05;;;;;;;10.45;6.30;;;;;;;;;;5111330;28;20043;-58
2021/08/26 08:01:31;;;;;;;10.95;6.68;;;;;;;;;;5112322;28;20024;-59
2021/08/26 08:03:56;;;;;;;12.15;6.63;;;;;;;;;;5111627;28;20034;-59
2021/08/26 08:06:21;;;;;;;8.75;4.50;;;;;;;;;;5112078;28;20023;-59
2021/08/26 08:08:46;;;;;;;5.50;2.80;;;;;;;;;;5111040;28;20496;-60
2021/08/26 08:11:12;;;;;;;11.35;5.55;;;;;;;;;;5107479;28;20016;-59
2021/08/26 08:13:37;;;;;;;10.77;6.65;;;;;;;;;;5091737;28;20022;-59
2021/08/26 08:16:04;;;;;;;16.70;4.82;;;;;;;;;;5108109;28;20024;-59
2021/08/26 08:18:29;;;;;;;15.80;8.15;;;;;;;;;;5111285;28;20020;-59
2021/08/26 08:20:54;;;;;;;8.50;5.97;;;;;;;;;;5111412;28;20023;-59
2021/08/26 08:23:19;;;;;;;14.60;8.45;;;;;;;;;;5111690;28;20470;-59
2021/08/26 08:25:45;;;;;;;7.88;6.05;;;;;;;;;;5111822;28;20035;-59
2021/08/26 08:28:16;;;;;;;7.55;4.53;;;;;;;;;;5111462;28;20134;-59
2021/08/26 08:30:42;;;;;;;6.97;4.35;;;;;;;;;;5111421;28;20031;-59
2021/08/26 08:33:08;;;;;;;13.90;7.00;;;;;;;;;;5111440;28;20024;-58
2021/08/26 08:35:33;;;;;;;8.50;5.63;;;;;;;;;;5111104;28;20522;-58
2021/08/26 08:37:58;;;;;;;13.77;6.30;;;;;;;;;;5111595;28;20351;-59
2021/08/26 08:40:23;;;;;;;12.05;7.22;;;;;;;;;;5111068;28;20478;-58
2021/08/26 08:42:49;;;;;;;10.70;7.25;;;;;;;;;;5111606;28;20060;-58
2021/08/26 08:45:14;;;;;;;5.47;3.20;;;;;;;;;;5111365;28;20023;-57
2021/08/26 08:47:39;;;;;;;7.28;4.22;;;;;;;;;;5110968;28;20019;-59
2021/08/26 08:50:06;;;;;;;11.18;6.95;;;;;;;;;;5110823;28;20053;-58
2021/08/26 08:52:38;;;;;;;7.22;4.97;;;;;;;;;;5111237;28;20140;-58
2021/08/26 08:55:04;;;;;;;9.25;6.07;;;;;;;;;;5111976;28;20016;-59
2021/08/26 08:57:29;;;;;;;12.82;5.75;;;;;;;;;;5111489;28;20099;-59
2021/08/26 08:59:55;;;;;;;7.20;5.97;;;;;;;;;;5111088;28;20107;-57
2021/08/26 09:02:20;;;;;;;8.02;5.05;;;;;;;;;;5093248;28;20026;-58
2021/08/26 09:04:55;;;;;;;8.75;4.15;;;;;;;;;;5113914;28;20020;-58
2021/08/26 09:07:22;;;;;;;5.60;2.28;;;;;;;;;;5115285;28;20051;-59
2021/08/26 09:09:51;;;;;;;7.05;3.22;;;;;;;;;;5114806;28;20389;-60
2021/08/26 09:12:17;;;;;;;6.75;4.47;;;;;;;;;;5114751;28;20453;-58
2021/08/26 09:14:42;;;;;;;7.93;5.05;;;;;;;;;;5114818;28;20066;-60
2021/08/26 09:17:15;;;;;;;10.07;3.63;;;;;;;;;;5114856;28;20099;-59
2021/08/26 09:19:43;;;;;;;4.55;3.55;;;;;;;;;;5114957;28;20019;-58
2021/08/26 09:22:08;;;;;;;8.27;5.15;;;;;;;;;;5114851;28;20043;-58
2021/08/26 09:24:50;;;;;;;7.07;4.57;;;;;;;;;;5114783;28;20452;-60
2021/08/26 09:27:34;;;;;;;5.75;4.75;;;;;;;;;;5108575;28;20046;-57
2021/08/26 09:30:02;;;;;;;10.15;3.85;;;;;;;;;;5114226;28;20020;-58
2021/08/26 09:32:37;;;;;;;8.45;5.32;;;;;;;;;;5114705;28;20011;-58
2021/08/26 09:35:11;;;;;;;6.95;4.55;;;;;;;;;;5113964;28;20057;-58
2021/08/26 09:37:40;;;;;;;7.03;5.17;;;;;;;;;;5114486;28;20065;-58
2021/08/26 09:40:06;;;;;;;8.27;4.90;;;;;;;;;;5112678;28;20273;-58
2021/08/26 09:42:31;;;;;;;11.48;5.53;;;;;;;;;;5114420;28;20034;-59
2021/08/26 09:45:12;;;;;;;8.75;6.40;;;;;;;;;;5113895;28;20531;-58
2021/08/26 09:47:56;;;;;;;7.45;5.05;;;;;;;;;;5115049;28;20023;-59
2021/08/26 09:50:39;;;;;;;7.18;4.90;;;;;;;;;;5114354;28;20023;-58
2021/08/26 09:53:05;;;;;;;9.13;4.40;;;;;;;;;;5114182;28;20011;-59
2021/08/26 09:56:00;;;;;;;3.33;2.55;;;;;;;;;;5096164;28;20041;-59
2021/08/26 09:58:26;;;;;;;5.78;2.97;;;;;;;;;;5086020;28;20038;-59
2021/08/26 10:01:12;;;;;;;6.35;2.70;;;;;;;;;;5113980;28;20024;-58
2021/08/26 10:03:38;;;;;;;3.30;1.88;;;;;;;;;;5114165;28;20489;-58
2021/08/26 10:06:03;;;;;;;6.97;2.47;;;;;;;;;;5114106;28;20397;-59
2021/08/26 10:08:29;;;;;;;6.72;2.40;;;;;;;;;;5114401;28;20107;-59
2021/08/26 10:10:55;;;;;;;5.03;2.03;;;;;;;;;;5114013;28;20022;-59
2021/08/26 10:13:20;;;;;;;4.88;1.52;;;;;;;;;;5113809;28;20470;-59
2021/08/26 10:15:46;;;;;;;6.33;1.70;;;;;;;;;;5111980;28;20131;-58
2021/08/26 10:18:12;;;;;;;3.13;1.50;;;;;;;;;;5113134;28;20258;-59
2021/08/26 10:20:37;;;;;;;2.70;0.73;;;;;;;;;;5112843;28;20061;-59
2021/08/26 10:23:03;;;;;;;5.85;1.63;;;;;;;;;;5113409;28;20039;-59
2021/08/26 10:25:29;;;;;;;3.72;1.65;;;;;;;;;;5114228;28;20103;-59
2021/08/26 10:27:56;;;;;;;4.03;1.55;;;;;;;;;;5113545;28;20047;-59
2021/08/26 10:30:28;;;;;;;9.15;3.20;;;;;;;;;;5112438;28;20565;-58
2021/08/26 10:33:23;;;;;;;7.47;3.90;;;;;;;;;;5113749;28;20046;-59
2021/08/26 10:35:52;;;;;;;6.88;3.40;;;;;;;;;;5071574;28;20020;-59
2021/08/26 10:38:21;;;;;;;6.80;3.22;;;;;;;;;;5097738;28;20023;-59
2021/08/26 10:40:47;;;;;;;4.70;2.85;;;;;;;;;;5111030;28;20107;-59
2021/08/26 10:43:50;;;;;;;6.35;4.22;;;;;;;;;;5113346;28;20098;-59
2021/08/26 10:46:16;;;;;;;7.38;3.80;;;;;;;;;;5049377;28;20037;-58
2021/08/26 10:48:58;;;;;;;6.68;4.50;;;;;;;;;;5050668;28;20028;-59
2021/08/26 10:51:24;;;;;;;5.15;4.43;;;;;;;;;;5029387;28;20436;-59
2021/08/26 10:53:49;;;;;;;6.50;3.85;;;;;;;;;;5010966;28;20022;-59
2021/08/26 10:56:29;;;;;;;9.93;5.43;;;;;;;;;;5011040;28;20038;-58
2021/08/26 10:58:58;;;;;;;7.57;4.38;;;;;;;;;;5010476;28;20060;-58
2021/08/26 11:01:30;;;;;;;3.70;1.95;;;;;;;;;;5010775;28;20034;-59
2021/08/26 11:03:55;;;;;;;4.13;2.10;;;;;;;;;;5010538;28;20120;-58
2021/08/26 11:06:22;;;;;;;5.63;1.90;;;;;;;;;;5010766;28;20101;-59
2021/08/26 11:08:47;;;;;;;2.45;1.48;;;;;;;;;;5023561;28;20056;-59
2021/08/26 11:11:27;;;;;;;4.95;2.20;;;;;;;;;;5048126;28;20495;-58
2021/08/26 11:14:02;;;;;;;4.03;2.20;;;;;;;;;;5031543;28;20029;-59
2021/08/26 11:16:27;;;;;;;4.95;2.35;;;;;;;;;;5051909;28;20085;-59
2021/08/26 11:18:56;;;;;;;4.47;2.97;;;;;;;;;;5112654;28;20031;-58
2021/08/26 11:21:40;;;;;;;4.78;2.65;;;;;;;;;;5112999;28;20377;-59
2021/08/26 11:24:05;;;;;;;4.22;2.80;;;;;;;;;;5112151;28;20098;-59
2021/08/26 11:26:49;;;;;;;5.88;2.92;;;;;;;;;;5111780;28;20058;-60
2021/08/26 11:29:17;;;;;;;1.20;0.82;;;;;;;;;;5114809;27;20417;-59
2021/08/26 11:31:43;;;;;;;6.13;3.08;;;;;;;;;;5093880;28;20032;-58
2021/08/26 11:34:08;;;;;;;2.90;1.25;;;;;;;;;;5092153;28;20103;-59
2021/08/26 11:36:33;;;;;;;5.40;1.48;;;;;;;;;;5106741;28;20035;-57
2021/08/26 11:38:59;;;;;;;3.22;1.38;;;;;;;;;;5112221;28;20141;-59
2021/08/26 11:41:24;;;;;;;2.95;1.13;;;;;;;;;;5111078;28;20496;-59
2021/08/26 11:43:50;;;;;;;2.42;1.13;;;;;;;;;;5110860;28;20023;-58
2021/08/26 11:46:16;;;;;;;3.15;0.63;;;;;;;;;;5111691;28;20050;-59
2021/08/26 11:48:48;;;;;;;1.75;0.70;;;;;;;;;;5112344;28;20020;-59
2021/08/26 11:51:20;;;;;;;3.20;1.13;;;;;;;;;;5111240;28;20038;-58
2021/08/26 11:53:45;;;;;;;2.25;0.77;;;;;;;;;;5111373;28;20024;-60
2021/08/26 11:56:11;;;;;;;1.42;0.57;;;;;;;;;;5112191;28;20016;-59
2021/08/26 11:58:36;;;;;;;1.13;0.67;;;;;;;;;;5111293;28;20028;-59
2021/08/26 12:01:01;;;;;;;3.00;0.80;;;;;;;;;;5111518;28;20272;-60
2021/08/26 12:03:27;;;;;;;3.23;1.03;;;;;;;;;;5111531;28;20777;-58
2021/08/26 12:05:52;;;;;;;5.10;1.80;;;;;;;;;;5108027;28;20364;-58
2021/08/26 12:08:18;;;;;;;4.95;1.73;;;;;;;;;;5110227;28;20019;-58
2021/08/26 12:10:45;;;;;;;3.85;1.58;;;;;;;;;;5108802;28;20061;-60
2021/08/26 12:13:18;;;;;;;3.05;1.23;;;;;;;;;;5111927;28;20043;-59
2021/08/26 12:15:55;;;;;;;2.50;1.35;;;;;;;;;;5111658;28;20016;-58
2021/08/26 12:18:23;;;;;;;3.53;1.50;;;;;;;;;;5112090;28;20046;-56
2021/08/26 12:20:50;;;;;;;3.92;1.65;;;;;;;;;;5101830;28;20020;-58
2021/08/26 12:23:17;;;;;;;3.17;2.10;;;;;;;;;;5112451;28;20056;-59
2021/08/26 12:25:43;;;;;;;8.30;1.92;;;;;;;;;;5111936;28;20024;-58
2021/08/26 12:28:09;;;;;;;5.55;2.08;;;;;;;;;;5111922;28;20462;-59
2021/08/26 12:30:42;;;;;;;3.45;1.50;;;;;;;;;;5109787;28;20034;-59
2021/08/26 12:33:27;;;;;;;4.50;1.50;;;;;;;;;;5104229;28;20421;-59
2021/08/26 12:35:56;;;;;;;2.75;1.02;;;;;;;;;;5106278;28;20106;-59
2021/08/26 12:38:41;;;;;;;3.08;1.38;;;;;;;;;;5101734;28;20072;-58
2021/08/26 12:41:08;;;;;;;4.13;1.38;;;;;;;;;;5114112;28;20466;-59
2021/08/26 12:43:43;;;;;;;5.25;2.00;;;;;;;;;;5114541;28;20096;-58
2021/08/26 12:46:09;;;;;;;4.32;1.40;;;;;;;;;;5113156;28;20386;-58
2021/08/26 12:48:36;;;;;;;4.65;1.30;;;;;;;;;;5114834;28;20478;-59
2021/08/26 12:51:06;;;;;;;1.48;0.65;;;;;;;;;;5114185;28;20424;-60
2021/08/26 12:53:31;;;;;;;2.55;1.08;;;;;;;;;;5115033;28;20063;-59
2021/08/26 12:56:00;;;;;;;1.17;0.63;;;;;;;;;;5114545;28;20293;-59
2021/08/26 12:58:26;;;;;;;2.90;1.10;;;;;;;;;;5115339;28;20465;-58
2021/08/26 13:00:51;;;;;;;1.50;1.17;;;;;;;;;;5095756;28;20024;-58
2021/08/26 13:03:16;;;;;;;3.58;1.02;;;;;;;;;;5108958;28;20380;-58
2021/08/26 13:05:48;;;;;;;2.90;1.40;;;;;;;;;;5112131;28;20065;-58
2021/08/26 13:08:13;;;;;;;2.92;1.20;;;;;;;;;;5114998;28;20478;-59
2021/08/26 13:10:40;;;;;;;2.70;0.70;;;;;;;;;;5114888;28;20027;-58
2021/08/26 13:13:09;;;;;;;3.00;1.15;;;;;;;;;;5114613;28;20076;-58
2021/08/26 13:15:34;;;;;;;3.03;0.70;;;;;;;;;;5115031;28;20016;-60
2021/08/26 13:17:59;;;;;;;3.27;1.20;;;;;;;;;;5114361;28;20545;-59
2021/08/26 13:20:24;;;;;;;2.75;0.70;;;;;;;;;;5115105;28;20267;-57
2021/08/26 13:22:50;;;;;;;2.17;1.23;;;;;;;;;;5114907;28;20024;-59
2021/08/26 13:25:16;;;;;;;7.47;1.63;;;;;;;;;;5113903;28;20273;-57
2021/08/26 13:27:41;;;;;;;1.77;0.95;;;;;;;;;;5114047;28;20289;-59
2021/08/26 13:30:07;;;;;;;2.38;1.20;;;;;;;;;;5114642;27;20488;-58
2021/08/26 13:32:32;;;;;;;3.25;1.00;;;;;;;;;;5109938;27;20024;-58
2021/08/26 13:34:57;;;;;;;3.03;0.77;;;;;;;;;;5106852;28;20020;-58
2021/08/26 13:37:23;;;;;;;2.53;0.70;;;;;;;;;;5111148;28;20301;-59
2021/08/26 13:39:48;;;;;;;0.95;0.50;;;;;;;;;;5109727;28;20035;-59
2021/08/26 13:42:13;;;;;;;1.27;0.40;;;;;;;;;;5111106;28;20027;-60
2021/08/26 13:44:39;;;;;;;2.30;0.50;;;;;;;;;;5110008;28;20016;-59
2021/08/26 13:47:04;;;;;;;1.33;0.45;;;;;;;;;;5100580;28;20012;-59
2021/08/26 13:49:29;;;;;;;2.55;0.60;;;;;;;;;;5108908;28;20027;-59
2021/08/26 13:51:55;;;;;;;2.72;0.70;;;;;;;;;;5107420;28;20024;-59
2021/08/26 13:54:23;;;;;;;2.53;0.73;;;;;;;;;;5108363;28;21396;-58
2021/08/26 13:56:49;;;;;;;1.55;0.68;;;;;;;;;;5108008;28;20134;-58
2021/08/26 13:59:14;;;;;;;2.95;0.80;;;;;;;;;;5109590;28;20549;-59
2021/08/26 14:01:39;;;;;;;3.20;0.68;;;;;;;;;;5111905;28;20034;-59
2021/08/26 14:04:05;;;;;;;2.88;0.70;;;;;;;;;;5105378;28;20027;-59
2021/08/26 14:06:30;;;;;;;1.52;0.57;;;;;;;;;;5105794;28;20193;-60
2021/08/26 14:08:56;;;;;;;1.38;0.50;;;;;;;;;;5110777;28;20027;-59
2021/08/26 14:11:21;;;;;;;2.28;0.63;;;;;;;;;;5111977;27;20112;-58
2021/08/26 14:13:46;;;;;;;2.17;0.63;;;;;;;;;;5102295;28;20024;-58
2021/08/26 14:16:13;;;;;;;1.48;0.60;;;;;;;;;;5105693;28;20030;-59
2021/08/26 14:18:39;;;;;;;2.13;0.55;;;;;;;;;;5113913;27;20027;-58
2021/08/26 14:21:04;;;;;;;1.45;0.60;;;;;;;;;;5132493;27;20015;-60
2021/08/26 14:23:29;;;;;;;1.60;0.55;;;;;;;;;;5101067;28;20103;-59
2021/08/26 14:25:55;;;;;;;1.40;0.50;;;;;;;;;;5101623;28;20023;-59
2021/08/26 14:28:20;;;;;;;0.68;0.32;;;;;;;;;;5112352;28;20044;-59
2021/08/26 14:30:45;;;;;;;1.30;0.50;;;;;;;;;;5092455;28;20123;-59
2021/08/26 14:33:11;;;;;;;4.25;1.20;;;;;;;;;;5102102;28;20039;-59
2021/08/26 14:35:36;;;;;;;2.20;0.90;;;;;;;;;;5105350;28;20020;-57
2021/08/26 14:38:02;;;;;;;1.67;0.70;;;;;;;;;;5112467;28;20016;-59
2021/08/26 14:40:29;;;;;;;3.35;1.00;;;;;;;;;;5111684;28;20099;-58